createdAt,value
2018-01-15T00:00:07.182Z,1021.39
2018-01-15T00:02:00.185Z,1021.31
2018-01-15T00:03:00.134Z,1021.35
2018-01-15T00:04:53.085Z,1021.41
2018-01-15T00:05:53.010Z,1021.31
2018-01-15T00:07:46.032Z,1021.35
2018-01-15T00:08:45.947Z,1021.29
2018-01-15T00:10:38.946Z,1021.29
2018-01-15T00:11:38.860Z,1021.27
2018-01-15T00:13:31.876Z,1021.25
2018-01-15T00:14:31.804Z,1021.25
2018-01-15T00:16:24.829Z,1021.19
2018-01-15T00:17:24.746Z,1021.18
2018-01-15T00:19:17.735Z,1021.21
2018-01-15T00:20:17.668Z,1021.18
2018-01-15T00:22:10.670Z,1021.18
2018-01-15T00:23:10.581Z,1021.20
2018-01-15T00:25:03.594Z,1021.11
2018-01-15T00:26:03.579Z,1021.14
2018-01-15T00:27:56.564Z,1021.06
2018-01-15T00:28:56.439Z,1021.06
2018-01-15T00:30:49.427Z,1021.07
2018-01-15T00:31:49.355Z,1021.06
2018-01-15T00:33:42.362Z,1020.98
2018-01-15T00:34:42.270Z,1021.01
2018-01-15T00:36:35.280Z,1020.94
2018-01-15T00:37:35.208Z,1020.98
2018-01-15T00:39:28.214Z,1020.97
2018-01-15T00:40:28.134Z,1020.99
2018-01-15T00:42:21.122Z,1020.94
2018-01-15T00:43:21.047Z,1020.88
2018-01-15T00:45:14.040Z,1020.92
2018-01-15T00:46:13.972Z,1020.91
2018-01-15T00:48:06.964Z,1020.94
2018-01-15T00:49:06.884Z,1020.94
2018-01-15T00:50:59.878Z,1020.86
2018-01-15T00:51:59.809Z,1020.87
2018-01-15T00:53:52.818Z,1020.81
2018-01-15T00:54:52.738Z,1020.79
2018-01-15T00:56:45.723Z,1020.85
2018-01-15T00:57:45.661Z,1020.84
2018-01-15T00:59:38.671Z,1020.75
2018-01-15T01:00:38.588Z,1020.73
2018-01-15T01:02:31.576Z,1020.66
2018-01-15T01:03:31.498Z,1020.62
2018-01-15T01:05:24.502Z,1020.67
2018-01-15T01:06:24.411Z,1020.67
2018-01-15T01:08:17.446Z,1020.68
2018-01-15T01:09:17.361Z,1020.68
2018-01-15T01:11:10.371Z,1020.62
2018-01-15T01:12:10.306Z,1020.70
2018-01-15T01:14:03.320Z,1020.63
2018-01-15T01:15:03.221Z,1020.52
2018-01-15T01:16:56.237Z,1020.50
2018-01-15T01:17:56.168Z,1020.52
2018-01-15T01:19:49.180Z,1020.54
2018-01-15T01:20:49.087Z,1020.49
2018-01-15T01:22:42.082Z,1020.48
2018-01-15T01:23:42.004Z,1020.49
2018-01-15T01:25:35.004Z,1020.48
2018-01-15T01:26:34.921Z,1020.50
2018-01-15T01:28:27.924Z,1020.44
2018-01-15T01:29:27.864Z,1020.39
2018-01-15T01:31:20.835Z,1020.28
2018-01-15T01:32:20.749Z,1020.31
2018-01-15T01:34:13.763Z,1020.23
2018-01-15T01:35:13.702Z,1020.19
2018-01-15T01:37:06.684Z,1020.19
2018-01-15T01:38:06.660Z,1020.13
2018-01-15T01:39:59.618Z,1020.08
2018-01-15T01:40:59.525Z,1020.08
2018-01-15T01:42:52.513Z,1020.03
2018-01-15T01:43:52.525Z,1019.96
2018-01-15T01:45:45.447Z,1019.97
2018-01-15T01:46:45.355Z,1019.94
2018-01-15T01:48:38.381Z,1019.94
2018-01-15T01:49:38.273Z,1019.94
2018-01-15T01:51:31.366Z,1019.90
2018-01-15T01:52:31.274Z,1019.94
2018-01-15T01:54:24.257Z,1019.90
2018-01-15T01:55:24.175Z,1019.87
2018-01-15T01:57:17.228Z,1019.86
2018-01-15T01:58:17.118Z,1019.83
2018-01-15T02:00:10.106Z,1019.76
2018-01-15T02:01:10.021Z,1019.75
2018-01-15T02:03:03.031Z,1019.72
2018-01-15T02:04:02.967Z,1019.74
2018-01-15T02:05:55.974Z,1019.69
2018-01-15T02:06:55.889Z,1019.66
2018-01-15T02:08:48.952Z,1019.67
2018-01-15T02:09:48.858Z,1019.57
2018-01-15T02:11:41.891Z,1019.48
2018-01-15T02:12:41.767Z,1019.40
2018-01-15T02:14:34.762Z,1019.45
2018-01-15T02:15:34.693Z,1019.39
2018-01-15T02:17:27.684Z,1019.42
2018-01-15T02:18:27.656Z,1019.49
2018-01-15T02:20:20.590Z,1019.53
2018-01-15T02:21:20.520Z,1019.47
2018-01-15T02:23:13.526Z,1019.36
2018-01-15T02:24:13.430Z,1019.46
2018-01-15T02:26:06.487Z,1019.31
2018-01-15T02:27:06.424Z,1019.32
2018-01-15T02:28:59.387Z,1019.23
2018-01-15T02:29:59.347Z,1019.28
2018-01-15T02:31:52.328Z,1019.27
2018-01-15T02:32:52.269Z,1019.24
2018-01-15T02:34:45.225Z,1019.27
2018-01-15T02:35:45.156Z,1019.26
2018-01-15T02:37:38.164Z,1019.18
2018-01-15T02:38:38.073Z,1019.18
2018-01-15T02:40:31.075Z,1019.15
2018-01-15T02:41:31.058Z,1019.14
2018-01-15T02:43:24.017Z,1019.16
2018-01-15T02:44:23.931Z,1019.15
2018-01-15T02:46:16.928Z,1019.19
2018-01-15T02:47:16.851Z,1019.11
2018-01-15T02:49:09.841Z,1019.10
2018-01-15T02:50:09.777Z,1019.05
2018-01-15T02:52:02.762Z,1019.00
2018-01-15T02:53:02.707Z,1018.98
2018-01-15T02:54:55.685Z,1018.89
2018-01-15T02:55:55.598Z,1018.83
2018-01-15T02:57:48.630Z,1018.85
2018-01-15T02:58:48.523Z,1018.87
2018-01-15T03:00:41.501Z,1018.87
2018-01-15T03:01:41.454Z,1018.87
2018-01-15T03:03:34.517Z,1018.76
2018-01-15T03:04:34.371Z,1018.76
2018-01-15T03:06:27.389Z,1018.80
2018-01-15T03:07:27.306Z,1018.75
2018-01-15T03:09:20.346Z,1018.70
2018-01-15T03:10:20.242Z,1018.69
2018-01-15T03:12:13.267Z,1018.72
2018-01-15T03:13:13.171Z,1018.65
2018-01-15T03:15:06.176Z,1018.70
2018-01-15T03:16:06.124Z,1018.61
2018-01-15T03:17:59.094Z,1018.59
2018-01-15T03:18:59.014Z,1018.59
2018-01-15T03:20:52.029Z,1018.53
2018-01-15T03:21:51.929Z,1018.50
2018-01-15T03:23:45.977Z,1018.45
2018-01-15T03:24:45.794Z,1018.44
2018-01-15T03:26:38.791Z,1018.46
2018-01-15T03:27:38.712Z,1018.39
2018-01-15T03:29:31.710Z,1018.38
2018-01-15T03:30:31.631Z,1018.35
2018-01-15T03:32:24.630Z,1018.34
2018-01-15T03:33:24.544Z,1018.30
2018-01-15T03:35:17.561Z,1018.32
2018-01-15T03:36:17.466Z,1018.33
2018-01-15T03:38:10.513Z,1018.25
2018-01-15T03:39:10.389Z,1018.22
2018-01-15T03:41:03.375Z,1018.17
2018-01-15T03:42:03.299Z,1018.20
2018-01-15T03:43:56.292Z,1018.20
2018-01-15T03:44:56.213Z,1018.18
2018-01-15T03:46:49.192Z,1018.22
2018-01-15T03:47:49.132Z,1018.17
2018-01-15T03:49:42.119Z,1018.10
2018-01-15T03:50:42.034Z,1018.07
2018-01-15T03:52:35.022Z,1018.04
2018-01-15T03:53:34.953Z,1018.08
2018-01-15T03:55:27.944Z,1018.02
2018-01-15T03:56:27.865Z,1017.99
2018-01-15T03:58:20.860Z,1017.96
2018-01-15T03:59:20.781Z,1017.96
2018-01-15T04:01:13.782Z,1017.94
2018-01-15T04:02:13.695Z,1017.99
2018-01-15T04:04:06.693Z,1017.95
2018-01-15T04:05:06.609Z,1017.93
2018-01-15T04:06:59.597Z,1017.91
2018-01-15T04:07:59.525Z,1017.93
2018-01-15T04:09:52.530Z,1017.85
2018-01-15T04:10:52.448Z,1017.81
2018-01-15T04:12:45.432Z,1017.79
2018-01-15T04:13:45.356Z,1017.86
2018-01-15T04:15:38.365Z,1017.83
2018-01-15T04:16:38.279Z,1017.88
2018-01-15T04:18:31.259Z,1017.83
2018-01-15T04:19:31.194Z,1017.89
2018-01-15T04:21:24.190Z,1017.84
2018-01-15T04:22:24.099Z,1017.81
2018-01-15T04:24:17.107Z,1017.76
2018-01-15T04:25:17.015Z,1017.73
2018-01-15T04:27:09.999Z,1017.64
2018-01-15T04:28:09.932Z,1017.62
2018-01-15T04:30:02.924Z,1017.57
2018-01-15T04:31:02.841Z,1017.58
2018-01-15T04:32:55.838Z,1017.53
2018-01-15T04:33:55.762Z,1017.51
2018-01-15T04:35:48.778Z,1017.52
2018-01-15T04:36:48.694Z,1017.52
2018-01-15T04:38:41.685Z,1017.46
2018-01-15T04:39:41.605Z,1017.45
2018-01-15T04:41:34.616Z,1017.35
2018-01-15T04:42:34.530Z,1017.32
2018-01-15T04:44:27.531Z,1017.27
2018-01-15T04:45:27.464Z,1017.33
2018-01-15T04:47:20.475Z,1017.29
2018-01-15T04:48:20.389Z,1017.24
2018-01-15T04:50:13.412Z,1017.24
2018-01-15T04:51:13.314Z,1017.26
2018-01-15T04:53:06.295Z,1017.13
2018-01-15T04:54:06.218Z,1017.11
2018-01-15T04:55:59.221Z,1017.17
2018-01-15T04:56:59.135Z,1017.08
2018-01-15T04:58:51.112Z,1017.06
2018-01-15T04:59:51.041Z,1017.03
2018-01-15T05:01:44.040Z,1017.01
2018-01-15T05:02:43.951Z,1017.03
2018-01-15T05:04:36.941Z,1017.00
2018-01-15T05:05:36.873Z,1017.04
2018-01-15T05:07:29.878Z,1016.99
2018-01-15T05:08:29.795Z,1016.92
2018-01-15T05:10:22.776Z,1016.90
2018-01-15T05:11:22.701Z,1016.93
2018-01-15T05:13:15.710Z,1016.92
2018-01-15T05:14:15.628Z,1016.89
2018-01-15T05:16:08.616Z,1016.88
2018-01-15T05:17:08.536Z,1016.89
2018-01-15T05:19:01.516Z,1016.84
2018-01-15T05:20:01.447Z,1016.82
2018-01-15T05:21:54.438Z,1016.72
2018-01-15T05:22:54.359Z,1016.73
2018-01-15T05:24:47.348Z,1016.71
2018-01-15T05:25:47.273Z,1016.72
2018-01-15T05:27:40.288Z,1016.67
2018-01-15T05:28:40.196Z,1016.76
2018-01-15T05:30:33.182Z,1016.75
2018-01-15T05:31:33.111Z,1016.69
2018-01-15T05:33:26.134Z,1016.66
2018-01-15T05:34:26.033Z,1016.60
2018-01-15T05:36:19.032Z,1016.59
2018-01-15T05:37:18.959Z,1016.57
2018-01-15T05:39:11.971Z,1016.58
2018-01-15T05:40:11.883Z,1016.57
2018-01-15T05:42:04.895Z,1016.67
2018-01-15T05:43:04.803Z,1016.69
2018-01-15T05:44:57.798Z,1016.60
2018-01-15T05:45:57.724Z,1016.60
2018-01-15T05:47:50.734Z,1016.54
2018-01-15T05:48:50.650Z,1016.58
2018-01-15T05:50:43.635Z,1016.56
2018-01-15T05:51:43.576Z,1016.55
2018-01-15T05:53:36.567Z,1016.49
2018-01-15T05:54:36.485Z,1016.48
2018-01-15T05:56:29.496Z,1016.48
2018-01-15T05:57:29.423Z,1016.45
2018-01-15T05:59:22.418Z,1016.45
2018-01-15T06:00:22.333Z,1016.38
2018-01-15T06:02:15.316Z,1016.40
2018-01-15T06:03:15.244Z,1016.42
2018-01-15T06:05:08.263Z,1016.35
2018-01-15T06:06:08.179Z,1016.34
2018-01-15T06:08:01.191Z,1016.32
2018-01-15T06:09:01.095Z,1016.35
2018-01-15T06:10:54.081Z,1016.32
2018-01-15T06:11:54.012Z,1016.32
2018-01-15T06:13:47.011Z,1016.32
2018-01-15T06:14:46.972Z,1016.28
2018-01-15T06:16:39.917Z,1016.27
2018-01-15T06:17:39.845Z,1016.28
2018-01-15T06:19:32.851Z,1016.27
2018-01-15T06:20:32.773Z,1016.19
2018-01-15T06:22:25.763Z,1016.27
2018-01-15T06:23:25.687Z,1016.17
2018-01-15T06:25:18.677Z,1016.22
2018-01-15T06:26:18.603Z,1016.16
2018-01-15T06:28:11.609Z,1016.18
2018-01-15T06:29:11.542Z,1016.15
2018-01-15T06:31:04.529Z,1016.11
2018-01-15T06:32:04.447Z,1016.07
2018-01-15T06:33:57.452Z,1016.04
2018-01-15T06:34:57.366Z,1016.04
2018-01-15T06:36:49.488Z,1016.15
2018-01-15T06:37:49.415Z,1016.13
2018-01-15T06:39:41.550Z,1016.08
2018-01-15T06:40:41.467Z,1016.06
2018-01-15T06:42:34.462Z,1016.05
2018-01-15T06:43:34.391Z,1016.02
2018-01-15T06:45:27.418Z,1016.03
2018-01-15T06:46:27.322Z,1015.95
2018-01-15T06:48:20.330Z,1015.93
2018-01-15T06:49:20.235Z,1015.95
2018-01-15T06:51:13.225Z,1015.93
2018-01-15T06:52:13.145Z,1015.96
2018-01-15T06:54:06.144Z,1015.92
2018-01-15T06:55:06.063Z,1015.91
2018-01-15T06:56:59.050Z,1015.90
2018-01-15T06:57:58.985Z,1015.87
2018-01-15T06:59:52.004Z,1015.88
2018-01-15T07:00:51.908Z,1015.83
2018-01-15T07:02:44.893Z,1015.81
2018-01-15T07:03:44.817Z,1015.72
2018-01-15T07:05:37.863Z,1015.66
2018-01-15T07:06:37.734Z,1015.67
2018-01-15T07:08:30.729Z,1015.68
2018-01-15T07:09:30.660Z,1015.64
2018-01-15T07:11:23.672Z,1015.64
2018-01-15T07:12:23.576Z,1015.65
2018-01-15T07:14:16.572Z,1015.61
2018-01-15T07:15:16.492Z,1015.56
2018-01-15T07:17:08.495Z,1015.68
2018-01-15T07:18:08.403Z,1015.65
2018-01-15T07:20:01.473Z,1015.56
2018-01-15T07:21:01.327Z,1015.61
2018-01-15T07:22:54.316Z,1015.48
2018-01-15T07:23:54.277Z,1015.56
2018-01-15T07:25:47.262Z,1015.49
2018-01-15T07:26:47.172Z,1015.57
2018-01-15T07:28:39.273Z,1015.46
2018-01-15T07:29:39.198Z,1015.38
2018-01-15T07:31:32.204Z,1015.42
2018-01-15T07:32:32.122Z,1015.44
2018-01-15T07:34:25.125Z,1015.43
2018-01-15T07:35:25.036Z,1015.39
2018-01-15T07:37:17.034Z,1015.42
2018-01-15T07:38:16.950Z,1015.44
2018-01-15T07:40:08.976Z,1015.46
2018-01-15T07:41:08.888Z,1015.44
2018-01-15T07:43:01.876Z,1015.41
2018-01-15T07:44:01.807Z,1015.44
2018-01-15T07:45:54.799Z,1015.41
2018-01-15T07:46:54.726Z,1015.42
2018-01-15T07:48:47.707Z,1015.48
2018-01-15T07:49:47.634Z,1015.47
2018-01-15T07:51:39.676Z,1015.29
2018-01-15T07:52:39.593Z,1015.27
2018-01-15T07:54:31.623Z,1015.25
2018-01-15T07:55:31.580Z,1015.24
2018-01-15T07:57:24.549Z,1015.20
2018-01-15T07:58:24.467Z,1015.23
2018-01-15T08:00:16.619Z,1015.18
2018-01-15T08:01:16.546Z,1015.20
2018-01-15T08:03:09.565Z,1015.22
2018-01-15T08:04:09.481Z,1015.15
2018-01-15T08:06:02.473Z,1015.14
2018-01-15T08:07:02.404Z,1015.10
2018-01-15T08:08:54.422Z,1015.10
2018-01-15T08:09:54.337Z,1015.08
2018-01-15T08:11:47.331Z,1015.10
2018-01-15T08:12:47.260Z,1015.11
2018-01-15T08:14:40.275Z,1015.10
2018-01-15T08:15:40.179Z,1015.04
2018-01-15T08:17:33.182Z,1015.08
2018-01-15T08:18:33.099Z,1015.07
2018-01-15T08:20:26.117Z,1015.00
2018-01-15T08:21:26.027Z,1015.00
2018-01-15T08:23:19.051Z,1014.94
2018-01-15T08:24:18.995Z,1014.95
2018-01-15T08:26:11.103Z,1014.93
2018-01-15T08:27:11.033Z,1015.00
2018-01-15T08:29:04.032Z,1014.92
2018-01-15T08:30:03.982Z,1014.87
2018-01-15T08:31:56.937Z,1014.82
2018-01-15T08:32:56.868Z,1014.79
2018-01-15T08:34:48.890Z,1014.73
2018-01-15T08:35:48.789Z,1014.83
2018-01-15T08:37:41.788Z,1014.77
2018-01-15T08:38:41.707Z,1014.75
2018-01-15T08:40:34.688Z,1014.69
2018-01-15T08:41:34.622Z,1014.74
2018-01-15T08:43:28.052Z,1014.74
2018-01-15T08:44:27.544Z,1014.66
2018-01-15T08:46:20.540Z,1014.64
2018-01-15T08:47:20.473Z,1014.64
2018-01-15T08:49:13.735Z,1014.66
2018-01-15T08:50:13.655Z,1014.64
2018-01-15T08:52:05.733Z,1014.60
2018-01-15T08:53:05.652Z,1014.60
2018-01-15T08:54:57.814Z,1014.59
2018-01-15T08:55:57.682Z,1014.61
2018-01-15T08:57:49.717Z,1014.50
2018-01-15T08:58:49.627Z,1014.51
2018-01-15T09:00:42.639Z,1014.53
2018-01-15T09:01:42.546Z,1014.55
2018-01-15T09:03:35.551Z,1014.47
2018-01-15T09:04:35.522Z,1014.41
2018-01-15T09:06:28.566Z,1014.48
2018-01-15T09:07:28.393Z,1014.46
2018-01-15T09:09:21.414Z,1014.37
2018-01-15T09:10:21.327Z,1014.46
2018-01-15T09:12:14.395Z,1014.37
2018-01-15T09:13:14.317Z,1014.41
2018-01-15T09:15:07.365Z,1014.35
2018-01-15T09:16:07.273Z,1014.34
2018-01-15T09:18:01.158Z,1014.29
2018-01-15T09:19:00.716Z,1014.22
2018-01-15T09:20:53.857Z,1014.20
2018-01-15T09:21:53.692Z,1014.22
2018-01-15T09:23:46.674Z,1014.13
2018-01-15T09:24:46.604Z,1014.13
2018-01-15T09:26:39.619Z,1014.19
2018-01-15T09:27:39.544Z,1014.12
2018-01-15T09:29:32.767Z,1014.09
2018-01-15T09:30:32.515Z,1014.08
2018-01-15T09:32:25.526Z,1014.05
2018-01-15T09:33:25.476Z,1014.01
2018-01-15T09:35:18.481Z,1014.06
2018-01-15T09:36:18.382Z,1014.03
2018-01-15T09:38:11.387Z,1014.03
2018-01-15T09:39:11.309Z,1014.10
2018-01-15T09:41:04.498Z,1014.07
2018-01-15T09:42:04.296Z,1014.01
2018-01-15T09:43:57.263Z,1013.97
2018-01-15T09:44:57.192Z,1013.92
2018-01-15T09:46:50.260Z,1013.88
2018-01-15T09:47:50.132Z,1013.86
2018-01-15T09:49:43.417Z,1013.80
2018-01-15T09:50:43.069Z,1013.83
2018-01-15T09:52:36.096Z,1013.85
2018-01-15T09:53:36.016Z,1013.76
2018-01-15T09:55:29.010Z,1013.73
2018-01-15T09:56:28.946Z,1013.69
2018-01-15T09:58:21.973Z,1013.70
2018-01-15T09:59:21.895Z,1013.61
2018-01-15T10:01:14.903Z,1013.59
2018-01-15T10:02:14.887Z,1013.55
2018-01-15T10:04:08.729Z,1013.39
2018-01-15T10:05:08.653Z,1013.41
2018-01-15T10:07:01.816Z,1013.23
2018-01-15T10:08:01.704Z,1013.34
2018-01-15T10:09:54.710Z,1013.30
2018-01-15T10:10:54.648Z,1013.27
2018-01-15T10:12:47.744Z,1013.19
2018-01-15T10:13:47.622Z,1013.20
2018-01-15T10:15:40.639Z,1013.17
2018-01-15T10:16:40.597Z,1013.15
2018-01-15T10:18:33.610Z,1013.12
2018-01-15T10:19:33.532Z,1013.07
2018-01-15T10:21:25.600Z,1013.08
2018-01-15T10:22:25.539Z,1013.02
2018-01-15T10:24:18.570Z,1013.01
2018-01-15T10:25:18.493Z,1012.97
2018-01-15T10:27:11.537Z,1012.93
2018-01-15T10:28:11.446Z,1013.06
2018-01-15T10:30:04.628Z,1012.91
2018-01-15T10:31:04.503Z,1012.85
2018-01-15T10:32:57.581Z,1012.81
2018-01-15T10:33:57.477Z,1012.79
2018-01-15T10:35:49.686Z,1012.73
2018-01-15T10:36:49.604Z,1012.80
2018-01-15T10:38:42.626Z,1012.62
2018-01-15T10:39:42.555Z,1012.62
2018-01-15T10:41:35.627Z,1012.63
2018-01-15T10:42:35.534Z,1012.56
2018-01-15T10:44:28.608Z,1012.43
2018-01-15T10:45:28.537Z,1012.39
2018-01-15T10:47:21.544Z,1012.38
2018-01-15T10:48:21.485Z,1012.40
2018-01-15T10:50:14.517Z,1012.32
2018-01-15T10:51:14.436Z,1012.34
2018-01-15T10:53:07.973Z,1012.25
2018-01-15T10:54:07.382Z,1012.21
2018-01-15T10:56:00.416Z,1012.21
2018-01-15T10:57:00.447Z,1012.16
2018-01-15T10:58:53.379Z,1012.10
2018-01-15T10:59:53.302Z,1011.95
2018-01-15T11:01:46.336Z,1011.97
2018-01-15T11:02:46.316Z,1011.90
2018-01-15T11:04:39.359Z,1011.84
2018-01-15T11:05:39.237Z,1011.83
2018-01-15T11:07:32.323Z,1011.74
2018-01-15T11:08:32.206Z,1011.68
2018-01-15T11:10:25.188Z,1011.62
2018-01-15T11:11:25.104Z,1011.62
2018-01-15T11:13:18.118Z,1011.58
2018-01-15T11:14:18.040Z,1011.53
2018-01-15T11:16:10.076Z,1011.52
2018-01-15T11:17:10.032Z,1011.45
2018-01-15T11:19:01.963Z,1011.45
2018-01-15T11:20:01.894Z,1011.41
2018-01-15T11:21:53.903Z,1011.43
2018-01-15T11:22:53.819Z,1011.34
2018-01-15T11:24:45.869Z,1011.45
2018-01-15T11:25:45.809Z,1011.33
2018-01-15T11:27:37.808Z,1011.28
2018-01-15T11:28:37.788Z,1011.28
2018-01-15T11:30:29.896Z,1011.18
2018-01-15T11:31:29.807Z,1011.22
2018-01-15T11:33:21.822Z,1011.16
2018-01-15T11:34:21.751Z,1011.15
2018-01-15T11:36:13.768Z,1011.02
2018-01-15T11:37:13.671Z,1011.03
2018-01-15T11:39:05.703Z,1011.03
2018-01-15T11:40:05.681Z,1011.01
2018-01-15T11:41:57.646Z,1010.91
2018-01-15T11:42:57.562Z,1010.90
2018-01-15T11:44:49.546Z,1010.79
2018-01-15T11:45:49.494Z,1010.72
2018-01-15T11:47:41.483Z,1010.77
2018-01-15T11:48:41.403Z,1010.76
2018-01-15T11:50:33.399Z,1010.68
2018-01-15T11:51:33.320Z,1010.66
2018-01-15T11:53:25.379Z,1010.71
2018-01-15T11:54:25.240Z,1010.64
2018-01-15T11:56:17.233Z,1010.61
2018-01-15T11:57:17.503Z,1010.54
2018-01-15T11:59:09.133Z,1010.50
2018-01-15T12:00:09.095Z,1010.44
2018-01-15T12:02:01.169Z,1010.40
2018-01-15T12:03:01.082Z,1010.38
2018-01-15T12:04:53.540Z,1010.27
2018-01-15T12:05:53.028Z,1010.30
2018-01-15T12:07:45.082Z,1010.24
2018-01-15T12:08:44.960Z,1010.22
2018-01-15T12:10:37.040Z,1010.11
2018-01-15T12:11:36.950Z,1010.08
2018-01-15T12:13:29.080Z,1009.99
2018-01-15T12:14:29.043Z,1009.99
2018-01-15T12:16:20.963Z,1009.96
2018-01-15T12:17:20.888Z,1009.94
2018-01-15T12:19:12.904Z,1009.91
2018-01-15T12:20:12.836Z,1009.89
2018-01-15T12:22:04.806Z,1009.75
2018-01-15T12:23:04.728Z,1009.80
2018-01-15T12:24:56.738Z,1009.67
2018-01-15T12:25:56.657Z,1009.59
2018-01-15T12:27:48.695Z,1009.54
2018-01-15T12:28:48.610Z,1009.52
2018-01-15T12:30:40.676Z,1009.53
2018-01-15T12:31:40.594Z,1009.58
2018-01-15T12:33:32.602Z,1009.55
2018-01-15T12:34:32.519Z,1009.57
2018-01-15T12:36:24.510Z,1009.46
2018-01-15T12:37:24.440Z,1009.38
2018-01-15T12:39:16.551Z,1009.37
2018-01-15T12:40:16.469Z,1009.38
2018-01-15T12:42:08.471Z,1009.36
2018-01-15T12:43:08.405Z,1009.35
2018-01-15T12:45:00.481Z,1009.26
2018-01-15T12:46:00.351Z,1009.23
2018-01-15T12:47:52.455Z,1009.20
2018-01-15T12:48:52.313Z,1009.12
2018-01-15T12:50:44.297Z,1009.17
2018-01-15T12:51:44.218Z,1009.13
2018-01-15T12:53:36.301Z,1009.12
2018-01-15T12:54:36.209Z,1009.09
2018-01-15T12:56:28.217Z,1009.05
2018-01-15T12:57:28.166Z,1009.08
2018-01-15T12:59:20.205Z,1009.09
2018-01-15T13:00:20.082Z,1009.12
2018-01-15T13:02:12.080Z,1008.95
2018-01-15T13:03:12.044Z,1008.96
2018-01-15T13:05:04.279Z,1008.82
2018-01-15T13:06:04.207Z,1008.81
2018-01-15T13:07:56.245Z,1008.80
2018-01-15T13:08:56.113Z,1008.74
2018-01-15T13:10:48.123Z,1008.68
2018-01-15T13:11:48.042Z,1008.65
2018-01-15T13:13:40.066Z,1008.75
2018-01-15T13:14:40.014Z,1008.76
2018-01-15T13:16:32.013Z,1008.84
2018-01-15T13:17:31.932Z,1008.86
2018-01-15T13:19:24.007Z,1008.83
2018-01-15T13:20:23.917Z,1008.74
2018-01-15T13:22:16.025Z,1008.69
2018-01-15T13:23:16.045Z,1008.73
2018-01-15T13:25:07.966Z,1008.72
2018-01-15T13:26:07.890Z,1008.73
2018-01-15T13:27:59.915Z,1008.62
2018-01-15T13:28:59.886Z,1008.61
2018-01-15T13:30:51.903Z,1008.53
2018-01-15T13:31:51.861Z,1008.52
2018-01-15T13:33:43.935Z,1008.39
2018-01-15T13:34:43.886Z,1008.38
2018-01-15T13:36:35.939Z,1008.37
2018-01-15T13:37:36.013Z,1008.34
2018-01-15T13:39:27.866Z,1008.27
2018-01-15T13:40:27.799Z,1008.30
2018-01-15T13:42:19.844Z,1008.23
2018-01-15T13:43:19.767Z,1008.31
2018-01-15T13:45:11.858Z,1008.33
2018-01-15T13:46:11.760Z,1008.32
2018-01-15T13:48:03.795Z,1008.21
2018-01-15T13:49:03.704Z,1008.21
2018-01-15T13:50:55.789Z,1008.14
2018-01-15T13:51:55.705Z,1008.10
2018-01-15T13:53:48.084Z,1008.09
2018-01-15T13:54:47.761Z,1008.09
2018-01-15T13:56:39.758Z,1008.09
2018-01-15T13:57:39.681Z,1008.00
2018-01-15T13:59:31.799Z,1007.88
2018-01-15T14:00:31.695Z,1007.90
2018-01-15T14:02:23.759Z,1007.91
2018-01-15T14:03:23.677Z,1007.87
2018-01-15T14:05:15.821Z,1007.80
2018-01-15T14:06:15.727Z,1007.75
2018-01-15T14:08:07.741Z,1007.77
2018-01-15T14:09:07.654Z,1007.78
2018-01-15T14:10:59.743Z,1007.69
2018-01-15T14:11:59.686Z,1007.66
2018-01-15T14:13:51.674Z,1007.57
2018-01-15T14:14:51.594Z,1007.58
2018-01-15T14:16:43.643Z,1007.41
2018-01-15T14:17:43.609Z,1007.41
2018-01-15T14:19:35.547Z,1007.47
2018-01-15T14:20:35.480Z,1007.46
2018-01-15T14:22:27.529Z,1007.37
2018-01-15T14:23:27.396Z,1007.18
2018-01-15T14:25:19.401Z,1007.36
2018-01-15T14:26:19.339Z,1007.27
2018-01-15T14:28:11.605Z,1007.23
2018-01-15T14:29:11.412Z,1007.23
2018-01-15T14:31:03.394Z,1007.22
2018-01-15T14:32:03.322Z,1007.15
2018-01-15T14:33:55.366Z,1007.11
2018-01-15T14:34:55.283Z,1007.16
2018-01-15T14:36:48.270Z,1007.11
2018-01-15T14:37:48.200Z,1007.15
2018-01-15T14:39:40.214Z,1007.04
2018-01-15T14:40:40.142Z,1007.05
2018-01-15T14:42:32.141Z,1007.06
2018-01-15T14:43:32.055Z,1007.02
2018-01-15T14:45:24.170Z,1006.93
2018-01-15T14:46:24.078Z,1006.93
2018-01-15T14:48:16.149Z,1006.78
2018-01-15T14:49:16.051Z,1006.79
2018-01-15T14:51:08.053Z,1006.70
2018-01-15T14:52:07.984Z,1006.68
2018-01-15T14:53:59.994Z,1006.70
2018-01-15T14:54:59.912Z,1006.71
2018-01-15T14:56:52.128Z,1006.62
2018-01-15T14:57:51.849Z,1006.48
2018-01-15T14:59:43.848Z,1006.45
2018-01-15T15:00:43.764Z,1006.49
2018-01-15T15:02:35.826Z,1006.35
2018-01-15T15:03:35.688Z,1006.40
2018-01-15T15:05:27.770Z,1006.32
2018-01-15T15:06:27.762Z,1006.21
2018-01-15T15:08:19.780Z,1006.14
2018-01-15T15:09:19.666Z,1006.31
2018-01-15T15:11:11.753Z,1006.14
2018-01-15T15:12:11.670Z,1006.08
2018-01-15T15:14:03.730Z,1006.04
2018-01-15T15:15:03.672Z,1006.01
2018-01-15T15:16:55.715Z,1005.95
2018-01-15T15:17:55.586Z,1005.92
2018-01-15T15:19:47.628Z,1005.97
2018-01-15T15:20:47.536Z,1006.05
2018-01-15T15:22:39.926Z,1005.95
2018-01-15T15:23:39.435Z,1005.93
2018-01-15T15:25:31.435Z,1005.90
2018-01-15T15:26:31.346Z,1005.78
2018-01-15T15:28:23.403Z,1005.79
2018-01-15T15:29:23.268Z,1005.69
2018-01-15T15:31:15.265Z,1005.68
2018-01-15T15:32:15.183Z,1005.66
2018-01-15T15:34:07.427Z,1005.52
2018-01-15T15:35:07.363Z,1005.50
2018-01-15T15:36:59.346Z,1005.58
2018-01-15T15:37:59.304Z,1005.53
2018-01-15T15:39:51.320Z,1005.59
2018-01-15T15:40:51.255Z,1005.57
2018-01-15T15:42:43.390Z,1005.49
2018-01-15T15:43:43.290Z,1005.37
2018-01-15T15:45:35.324Z,1005.24
2018-01-15T15:46:35.244Z,1005.29
2018-01-15T15:48:27.592Z,1005.15
2018-01-15T15:49:27.166Z,1005.06
2018-01-15T15:51:19.164Z,1005.09
2018-01-15T15:52:19.076Z,1005.03
2018-01-15T15:54:11.160Z,1005.07
2018-01-15T15:55:11.088Z,1005.04
2018-01-15T15:57:03.085Z,1005.04
2018-01-15T15:58:03.049Z,1004.97
2018-01-15T15:59:54.996Z,1004.86
2018-01-15T16:00:54.927Z,1004.85
2018-01-15T16:02:47.119Z,1004.83
2018-01-15T16:03:47.041Z,1004.80
2018-01-15T16:05:39.124Z,1004.71
2018-01-15T16:06:38.992Z,1004.69
2018-01-15T16:08:31.023Z,1004.71
2018-01-15T16:09:30.942Z,1004.71
2018-01-15T16:11:22.963Z,1004.66
2018-01-15T16:12:22.892Z,1004.56
2018-01-15T16:14:14.936Z,1004.56
2018-01-15T16:15:14.836Z,1004.49
2018-01-15T16:17:07.071Z,1004.46
2018-01-15T16:18:07.085Z,1004.40
2018-01-15T16:19:59.201Z,1004.37
2018-01-15T16:20:59.078Z,1004.22
2018-01-15T16:22:51.558Z,1004.22
2018-01-15T16:23:51.117Z,1004.24
2018-01-15T16:25:44.930Z,1004.17
2018-01-15T16:26:43.000Z,1004.15
2018-01-15T16:28:35.000Z,1004.23
2018-01-15T16:29:34.919Z,1004.13
2018-01-15T16:31:26.913Z,1004.13
2018-01-15T16:32:26.885Z,1004.09
2018-01-15T16:34:18.854Z,1004.13
2018-01-15T16:35:18.772Z,1004.11
2018-01-15T16:37:10.748Z,1004.22
2018-01-15T16:38:10.724Z,1004.16
2018-01-15T16:40:02.672Z,1004.05
2018-01-15T16:41:02.594Z,1004.03
2018-01-15T16:42:54.654Z,1003.96
2018-01-15T16:43:54.607Z,1004.04
2018-01-15T16:45:46.577Z,1003.91
2018-01-15T16:46:46.489Z,1003.92
2018-01-15T16:48:38.498Z,1003.83
2018-01-15T16:49:38.410Z,1003.88
2018-01-15T16:51:30.796Z,1003.87
2018-01-15T16:52:30.346Z,1003.80
2018-01-15T16:54:22.357Z,1003.74
2018-01-15T16:55:22.279Z,1003.71
2018-01-15T16:57:14.713Z,1003.68
2018-01-15T16:58:14.338Z,1003.67
2018-01-15T17:00:06.297Z,1003.58
2018-01-15T17:01:06.230Z,1003.59
2018-01-15T17:02:58.185Z,1003.65
2018-01-15T17:03:58.101Z,1003.63
2018-01-15T17:05:50.144Z,1003.49
2018-01-15T17:06:50.020Z,1003.47
2018-01-15T17:08:42.033Z,1003.50
2018-01-15T17:09:41.961Z,1003.35
2018-01-15T17:11:33.965Z,1003.34
2018-01-15T17:12:33.923Z,1003.29
2018-01-15T17:14:25.855Z,1003.20
2018-01-15T17:15:25.781Z,1003.26
2018-01-15T17:17:17.806Z,1003.24
2018-01-15T17:18:17.740Z,1003.15
2018-01-15T17:20:09.716Z,1003.19
2018-01-15T17:21:09.632Z,1003.03
2018-01-15T17:23:01.699Z,1003.01